sensor_id;sensor_type;location;lat;lon;timestamp;pressure;altitude;pressure_sealevel;temperature;humidity
23281;BME280;11809;56.390;-3.266;2023-09-19T00:00:44;99034.00;;;16.50;67.33
23281;BME280;11809;56.390;-3.266;2023-09-19T00:03:14;99035.66;;;16.51;67.22
23281;BME280;11809;56.390;-3.266;2023-09-19T00:05:42;99044.59;;;16.50;67.27
23281;BME280;11809;56.390;-3.266;2023-09-19T00:08:12;99034.97;;;16.49;67.24
23281;BME280;11809;56.390;-3.266;2023-09-19T00:10:42;99030.63;;;16.48;67.45
23281;BME280;11809;56.390;-3.266;2023-09-19T00:13:10;99028.13;;;16.46;67.34
23281;BME280;11809;56.390;-3.266;2023-09-19T00:15:44;99030.78;;;16.46;67.38
23281;BME280;11809;56.390;-3.266;2023-09-19T00:18:22;99029.09;;;16.45;67.41
23281;BME280;11809;56.390;-3.266;2023-09-19T00:20:50;99034.53;;;16.44;67.41
23281;BME280;11809;56.390;-3.266;2023-09-19T00:23:19;99041.06;;;16.39;67.25
23281;BME280;11809;56.390;-3.266;2023-09-19T00:25:47;99036.34;;;16.43;67.33
23281;BME280;11809;56.390;-3.266;2023-09-19T00:28:14;99031.19;;;16.42;67.46
23281;BME280;11809;56.390;-3.266;2023-09-19T00:30:43;99026.72;;;16.42;67.41
23281;BME280;11809;56.390;-3.266;2023-09-19T00:33:11;99025.16;;;16.39;67.43
23281;BME280;11809;56.390;-3.266;2023-09-19T00:35:53;99031.47;;;16.38;67.45
23281;BME280;11809;56.390;-3.266;2023-09-19T00:38:21;99029.50;;;16.41;67.44
23281;BME280;11809;56.390;-3.266;2023-09-19T00:40:50;99034.81;;;16.41;67.36
23281;BME280;11809;56.390;-3.266;2023-09-19T00:43:20;99036.78;;;16.38;67.30
23281;BME280;11809;56.390;-3.266;2023-09-19T00:45:49;99028.13;;;16.36;67.48
23281;BME280;11809;56.390;-3.266;2023-09-19T00:48:19;99028.13;;;16.36;67.27
23281;BME280;11809;56.390;-3.266;2023-09-19T00:50:48;99026.56;;;16.34;67.45
23281;BME280;11809;56.390;-3.266;2023-09-19T00:53:19;99020.56;;;16.32;67.36
23281;BME280;11809;56.390;-3.266;2023-09-19T00:55:48;99021.69;;;16.29;67.48
23281;BME280;11809;56.390;-3.266;2023-09-19T00:58:19;99020.97;;;16.27;67.53
23281;BME280;11809;56.390;-3.266;2023-09-19T01:00:49;99022.50;;;16.30;67.63
23281;BME280;11809;56.390;-3.266;2023-09-19T01:03:17;99017.22;;;16.30;67.40
23281;BME280;11809;56.390;-3.266;2023-09-19T01:05:45;99011.50;;;16.25;67.35
23281;BME280;11809;56.390;-3.266;2023-09-19T01:08:12;99015.81;;;16.26;67.40
23281;BME280;11809;56.390;-3.266;2023-09-19T01:10:46;99011.59;;;16.23;67.43
23281;BME280;11809;56.390;-3.266;2023-09-19T01:13:26;99002.97;;;16.21;67.52
23281;BME280;11809;56.390;-3.266;2023-09-19T01:16:42;99004.06;;;16.19;67.66
23281;BME280;11809;56.390;-3.266;2023-09-19T01:25:19;99010.50;;;16.16;67.58
23281;BME280;11809;56.390;-3.266;2023-09-19T01:30:40;99002.41;;;16.18;67.55
23281;BME280;11809;56.390;-3.266;2023-09-19T01:33:10;98995.44;;;16.17;67.55
23281;BME280;11809;56.390;-3.266;2023-09-19T01:35:41;98999.88;;;16.16;67.53
23281;BME280;11809;56.390;-3.266;2023-09-19T01:38:08;98996.28;;;16.17;67.42
23281;BME280;11809;56.390;-3.266;2023-09-19T01:40:41;98989.28;;;16.16;67.43
23281;BME280;11809;56.390;-3.266;2023-09-19T01:51:02;98985.25;;;16.12;67.55
23281;BME280;11809;56.390;-3.266;2023-09-19T01:54:01;98982.59;;;16.12;67.61
23281;BME280;11809;56.390;-3.266;2023-09-19T01:56:50;98985.53;;;16.09;67.60
23281;BME280;11809;56.390;-3.266;2023-09-19T01:59:25;98982.03;;;16.09;67.46
23281;BME280;11809;56.390;-3.266;2023-09-19T02:01:55;98982.88;;;16.09;67.34
23281;BME280;11809;56.390;-3.266;2023-09-19T02:04:23;98989.13;;;16.08;67.67
23281;BME280;11809;56.390;-3.266;2023-09-19T02:06:50;98992.78;;;16.07;67.62
23281;BME280;11809;56.390;-3.266;2023-09-19T02:09:18;98997.09;;;16.08;67.64
23281;BME280;11809;56.390;-3.266;2023-09-19T02:11:45;98990.81;;;16.09;67.45
23281;BME280;11809;56.390;-3.266;2023-09-19T02:14:13;98978.41;;;16.10;67.34
23281;BME280;11809;56.390;-3.266;2023-09-19T02:16:40;98983.72;;;16.10;67.56
23281;BME280;11809;56.390;-3.266;2023-09-19T02:19:08;98968.94;;;16.07;67.60
23281;BME280;11809;56.390;-3.266;2023-09-19T02:21:35;98968.09;;;16.07;67.58
23281;BME280;11809;56.390;-3.266;2023-09-19T02:24:04;98955.78;;;16.06;67.60
23281;BME280;11809;56.390;-3.266;2023-09-19T02:26:31;98949.66;;;16.05;67.59
23281;BME280;11809;56.390;-3.266;2023-09-19T02:28:58;98936.41;;;16.05;67.62
23281;BME280;11809;56.390;-3.266;2023-09-19T02:31:26;98932.09;;;16.04;67.47
23281;BME280;11809;56.390;-3.266;2023-09-19T02:33:56;98932.09;;;16.04;67.63
23281;BME280;11809;56.390;-3.266;2023-09-19T02:36:23;98933.06;;;16.03;67.71
23281;BME280;11809;56.390;-3.266;2023-09-19T02:38:50;98935.00;;;16.01;67.58
23281;BME280;11809;56.390;-3.266;2023-09-19T02:41:17;98927.91;;;16.02;67.80
23281;BME280;11809;56.390;-3.266;2023-09-19T02:43:44;98929.03;;;15.99;67.46
23281;BME280;11809;56.390;-3.266;2023-09-19T02:46:11;98931.69;;;15.99;67.63
23281;BME280;11809;56.390;-3.266;2023-09-19T02:48:38;98928.19;;;15.99;67.56
23281;BME280;11809;56.390;-3.266;2023-09-19T02:51:05;98928.31;;;15.97;67.55
23281;BME280;11809;56.390;-3.266;2023-09-19T02:53:33;98933.59;;;15.97;67.66
23281;BME280;11809;56.390;-3.266;2023-09-19T02:55:59;98926.75;;;15.95;67.59
23281;BME280;11809;56.390;-3.266;2023-09-19T02:58:27;98926.91;;;15.93;67.71
23281;BME280;11809;56.390;-3.266;2023-09-19T03:00:54;98934.88;;;15.93;67.60
23281;BME280;11809;56.390;-3.266;2023-09-19T03:03:22;98927.88;;;15.92;67.65
23281;BME280;11809;56.390;-3.266;2023-09-19T03:05:49;98927.88;;;15.92;67.59
23281;BME280;11809;56.390;-3.266;2023-09-19T03:08:21;98915.63;;;15.91;67.47
23281;BME280;11809;56.390;-3.266;2023-09-19T03:10:48;98912.25;;;15.89;67.62
23281;BME280;11809;56.390;-3.266;2023-09-19T03:13:15;98902.38;;;15.91;67.62
23281;BME280;11809;56.390;-3.266;2023-09-19T03:15:43;98896.50;;;15.88;67.63
23281;BME280;11809;56.390;-3.266;2023-09-19T03:18:17;98900.28;;;15.85;67.64
23281;BME280;11809;56.390;-3.266;2023-09-19T03:20:52;98900.53;;;15.82;67.69
23281;BME280;11809;56.390;-3.266;2023-09-19T03:23:22;98902.22;;;15.83;67.63
23281;BME280;11809;56.390;-3.266;2023-09-19T03:25:49;98902.34;;;15.82;67.63
23281;BME280;11809;56.390;-3.266;2023-09-19T03:28:17;98892.88;;;15.79;67.71
23281;BME280;11809;56.390;-3.266;2023-09-19T03:30:44;98882.97;;;15.81;67.82
23281;BME280;11809;56.390;-3.266;2023-09-19T03:33:12;98874.31;;;15.79;67.96
23281;BME280;11809;56.390;-3.266;2023-09-19T03:35:39;98876.97;;;15.79;67.93
23281;BME280;11809;56.390;-3.266;2023-09-19T03:38:06;98884.06;;;15.78;67.72
23281;BME280;11809;56.390;-3.266;2023-09-19T03:40:33;98868.34;;;15.77;67.79
23281;BME280;11809;56.390;-3.266;2023-09-19T03:43:01;98869.28;;;15.76;67.92
23281;BME280;11809;56.390;-3.266;2023-09-19T03:45:28;98863.47;;;15.72;67.86
23281;BME280;11809;56.390;-3.266;2023-09-19T03:47:55;98865.94;;;15.74;67.86
23281;BME280;11809;56.390;-3.266;2023-09-19T03:50:22;98869.56;;;15.73;67.95
23281;BME280;11809;56.390;-3.266;2023-09-19T03:52:49;98867.06;;;15.71;67.77
23281;BME280;11809;56.390;-3.266;2023-09-19T03:55:16;98869.56;;;15.73;67.84
23281;BME280;11809;56.390;-3.266;2023-09-19T03:57:48;98855.63;;;15.71;67.87
23281;BME280;11809;56.390;-3.266;2023-09-19T04:00:15;98850.59;;;15.68;67.67
23281;BME280;11809;56.390;-3.266;2023-09-19T04:02:45;98859.28;;;15.70;68.02
23281;BME280;11809;56.390;-3.266;2023-09-19T04:05:12;98862.03;;;15.68;68.13
23281;BME280;11809;56.390;-3.266;2023-09-19T04:07:39;98850.59;;;15.68;67.94
23281;BME280;11809;56.390;-3.266;2023-09-19T04:10:07;98829.56;;;15.66;68.16
23281;BME280;11809;56.390;-3.266;2023-09-19T04:12:35;98841.00;;;15.67;67.99
23281;BME280;11809;56.390;-3.266;2023-09-19T04:15:03;98835.81;;;15.65;68.19
23281;BME280;11809;56.390;-3.266;2023-09-19T04:17:30;98837.50;;;15.66;68.03
23281;BME280;11809;56.390;-3.266;2023-09-19T04:19:59;98828.03;;;15.64;68.25
23281;BME280;11809;56.390;-3.266;2023-09-19T04:22:26;98818.41;;;15.63;68.23
23281;BME280;11809;56.390;-3.266;2023-09-19T04:24:53;98807.97;;;15.61;68.32
23281;BME280;11809;56.390;-3.266;2023-09-19T04:27:20;98803.50;;;15.62;68.01
23281;BME280;11809;56.390;-3.266;2023-09-19T04:29:47;98809.63;;;15.62;68.22
23281;BME280;11809;56.390;-3.266;2023-09-19T04:32:14;98815.75;;;15.63;68.12
23281;BME280;11809;56.390;-3.266;2023-09-19T04:34:42;98807.28;;;15.59;68.27
23281;BME280;11809;56.390;-3.266;2023-09-19T04:37:09;98807.13;;;15.61;68.27
23281;BME280;11809;56.390;-3.266;2023-09-19T04:39:37;98807.97;;;15.61;68.33
23281;BME280;11809;56.390;-3.266;2023-09-19T04:42:05;98802.78;;;15.60;68.13
23281;BME280;11809;56.390;-3.266;2023-09-19T04:44:35;98799.19;;;15.61;68.18
23281;BME280;11809;56.390;-3.266;2023-09-19T04:47:04;98798.47;;;15.59;68.36
23281;BME280;11809;56.390;-3.266;2023-09-19T04:49:32;98798.47;;;15.59;68.23
23281;BME280;11809;56.390;-3.266;2023-09-19T04:52:00;98791.38;;;15.59;68.28
23281;BME280;11809;56.390;-3.266;2023-09-19T04:54:26;98787.16;;;15.57;68.29
23281;BME280;11809;56.390;-3.266;2023-09-19T04:56:53;98776.59;;;15.57;67.77
23281;BME280;11809;56.390;-3.266;2023-09-19T04:59:20;98776.72;;;15.55;68.10
23281;BME280;11809;56.390;-3.266;2023-09-19T05:01:47;98773.94;;;15.57;68.19
23281;BME280;11809;56.390;-3.266;2023-09-19T05:04:14;98772.97;;;15.58;68.32
23281;BME280;11809;56.390;-3.266;2023-09-19T05:06:41;98777.31;;;15.59;68.26
23281;BME280;11809;56.390;-3.266;2023-09-19T05:09:12;98767.13;;;15.64;68.18
23281;BME280;11809;56.390;-3.266;2023-09-19T05:11:40;98763.50;;;15.65;68.25
23281;BME280;11809;56.390;-3.266;2023-09-19T05:14:07;98768.66;;;15.66;69.17
23281;BME280;11809;56.390;-3.266;2023-09-19T05:16:34;98757.91;;;15.68;68.86
23281;BME280;11809;56.390;-3.266;2023-09-19T05:19:01;98770.19;;;15.69;68.79
23281;BME280;11809;56.390;-3.266;2023-09-19T05:21:28;98787.19;;;15.66;68.81
23281;BME280;11809;56.390;-3.266;2023-09-19T05:23:56;98780.38;;;15.64;69.15
23281;BME280;11809;56.390;-3.266;2023-09-19T05:26:23;98767.13;;;15.64;69.28
23281;BME280;11809;56.390;-3.266;2023-09-19T05:28:50;98761.69;;;15.65;69.55
23281;BME280;11809;56.390;-3.266;2023-09-19T05:31:17;98749.00;;;15.69;69.29
23281;BME280;11809;56.390;-3.266;2023-09-19T05:33:44;98756.53;;;15.73;69.18
23281;BME280;11809;56.390;-3.266;2023-09-19T05:36:12;98746.63;;;15.75;69.14
23281;BME280;11809;56.390;-3.266;2023-09-19T05:38:39;98753.31;;;15.80;69.11
23281;BME280;11809;56.390;-3.266;2023-09-19T05:41:08;98753.16;;;15.81;69.16
23281;BME280;11809;56.390;-3.266;2023-09-19T05:43:38;98759.19;;;15.83;68.95
23281;BME280;11809;56.390;-3.266;2023-09-19T05:46:05;98762.53;;;15.85;68.75
23281;BME280;11809;56.390;-3.266;2023-09-19T05:48:33;98756.94;;;15.88;68.77
23281;BME280;11809;56.390;-3.266;2023-09-19T05:51:00;98750.25;;;15.84;68.61
23281;BME280;11809;56.390;-3.266;2023-09-19T05:53:30;98750.53;;;15.81;68.45
23281;BME280;11809;56.390;-3.266;2023-09-19T05:55:57;98747.88;;;15.81;68.49
23281;BME280;11809;56.390;-3.266;2023-09-19T05:58:27;98747.88;;;15.81;68.24
23281;BME280;11809;56.390;-3.266;2023-09-19T06:00:54;98739.94;;;15.81;68.27
23281;BME280;11809;56.390;-3.266;2023-09-19T06:03:22;98734.34;;;15.84;68.26
23281;BME280;11809;56.390;-3.266;2023-09-19T06:05:49;98730.75;;;15.85;68.23
23281;BME280;11809;56.390;-3.266;2023-09-19T06:08:16;98733.13;;;15.88;67.98
23281;BME280;11809;56.390;-3.266;2023-09-19T06:10:43;98734.91;;;15.88;67.99
23281;BME280;11809;56.390;-3.266;2023-09-19T06:13:10;98731.59;;;15.86;67.88
23281;BME280;11809;56.390;-3.266;2023-09-19T06:15:37;98726.81;;;15.89;68.20
23281;BME280;11809;56.390;-3.266;2023-09-19T06:18:04;98718.88;;;15.89;68.26
23281;BME280;11809;56.390;-3.266;2023-09-19T06:20:32;98712.03;;;15.96;68.27
23281;BME280;11809;56.390;-3.266;2023-09-19T06:23:00;98714.53;;;15.98;68.20
23281;BME280;11809;56.390;-3.266;2023-09-19T06:25:29;98715.38;;;15.98;68.32
23281;BME280;11809;56.390;-3.266;2023-09-19T06:27:56;98720.41;;;16.01;68.25
23281;BME280;11809;56.390;-3.266;2023-09-19T06:30:24;98712.03;;;15.96;66.50
23281;BME280;11809;56.390;-3.266;2023-09-19T06:32:59;98711.19;;;15.86;65.54
23281;BME280;11809;56.390;-3.266;2023-09-19T06:35:28;98715.69;;;15.76;65.90
23281;BME280;11809;56.390;-3.266;2023-09-19T06:37:56;98717.09;;;15.80;66.97
23281;BME280;11809;56.390;-3.266;2023-09-19T06:40:25;98719.59;;;15.82;67.31
23281;BME280;11809;56.390;-3.266;2023-09-19T06:42:53;98706.50;;;15.80;67.69
23281;BME280;11809;56.390;-3.266;2023-09-19T06:45:20;98715.13;;;15.82;67.69
23281;BME280;11809;56.390;-3.266;2023-09-19T06:47:50;98710.66;;;15.83;67.64
23281;BME280;11809;56.390;-3.266;2023-09-19T06:50:19;98717.09;;;15.80;67.71
23281;BME280;11809;56.390;-3.266;2023-09-19T06:52:55;98712.06;;;15.77;68.16
23281;BME280;11809;56.390;-3.266;2023-09-19T06:55:25;98717.38;;;15.77;68.05
23281;BME280;11809;56.390;-3.266;2023-09-19T06:57:55;98710.38;;;15.76;68.01
23281;BME280;11809;56.390;-3.266;2023-09-19T07:00:22;98714.72;;;15.77;68.01
23281;BME280;11809;56.390;-3.266;2023-09-19T07:03:03;98712.19;;;15.75;67.81
23281;BME280;11809;56.390;-3.266;2023-09-19T07:05:32;98702.59;;;15.74;67.89
23281;BME280;11809;56.390;-3.266;2023-09-19T07:08:00;98712.63;;;15.71;67.78
23281;BME280;11809;56.390;-3.266;2023-09-19T07:10:28;98702.03;;;15.71;67.83
23281;BME280;11809;56.390;-3.266;2023-09-19T07:13:03;98693.13;;;15.72;67.97
23281;BME280;11809;56.390;-3.266;2023-09-19T07:15:32;98695.09;;;15.70;67.90
23281;BME280;11809;56.390;-3.266;2023-09-19T07:18:02;98694.38;;;15.68;67.82
23281;BME280;11809;56.390;-3.266;2023-09-19T07:20:30;98695.38;;;15.67;67.79
23281;BME280;11809;56.390;-3.266;2023-09-19T07:22:59;98691.19;;;15.64;68.07
23281;BME280;11809;56.390;-3.266;2023-09-19T07:25:27;98675.13;;;15.66;68.21
23281;BME280;11809;56.390;-3.266;2023-09-19T07:27:56;98674.44;;;15.64;68.25
23281;BME280;11809;56.390;-3.266;2023-09-19T07:30:23;98681.41;;;15.65;68.08
23281;BME280;11809;56.390;-3.266;2023-09-19T07:32:50;98667.63;;;15.61;68.07
23281;BME280;11809;56.390;-3.266;2023-09-19T07:35:18;98672.78;;;15.63;68.23
23281;BME280;11809;56.390;-3.266;2023-09-19T07:37:49;98678.34;;;15.60;68.32
23281;BME280;11809;56.390;-3.266;2023-09-19T07:40:18;98678.34;;;15.60;68.20
23281;BME280;11809;56.390;-3.266;2023-09-19T07:42:47;98688.41;;;15.56;67.90
23281;BME280;11809;56.390;-3.266;2023-09-19T07:45:15;98685.84;;;15.36;65.75
23281;BME280;11809;56.390;-3.266;2023-09-19T07:47:47;98667.19;;;15.37;67.24
23281;BME280;11809;56.390;-3.266;2023-09-19T07:50:16;98659.81;;;15.41;67.77
23281;BME280;11809;56.390;-3.266;2023-09-19T07:52:46;98680.44;;;15.47;68.28
23281;BME280;11809;56.390;-3.266;2023-09-19T07:55:13;98684.78;;;15.48;68.00
23281;BME280;11809;56.390;-3.266;2023-09-19T07:57:44;98681.69;;;15.52;68.03
23281;BME280;11809;56.390;-3.266;2023-09-19T08:00:11;98671.78;;;15.54;67.79
23281;BME280;11809;56.390;-3.266;2023-09-19T08:02:42;98684.34;;;15.52;67.98
23281;BME280;11809;56.390;-3.266;2023-09-19T08:05:12;98684.22;;;15.54;68.22
23281;BME280;11809;56.390;-3.266;2023-09-19T08:07:44;98658.84;;;15.61;68.08
23281;BME280;11809;56.390;-3.266;2023-09-19T08:10:23;98659.13;;;15.58;68.13
23281;BME280;11809;56.390;-3.266;2023-09-19T08:12:54;98653.56;;;15.61;68.19
23281;BME280;11809;56.390;-3.266;2023-09-19T08:15:24;98656.88;;;15.63;68.01
23281;BME280;11809;56.390;-3.266;2023-09-19T08:17:52;98655.22;;;15.62;68.04
23281;BME280;11809;56.390;-3.266;2023-09-19T08:20:20;98654.22;;;15.63;68.12
23281;BME280;11809;56.390;-3.266;2023-09-19T08:22:49;98662.47;;;15.60;68.14
23281;BME280;11809;56.390;-3.266;2023-09-19T08:25:18;98673.78;;;15.62;68.21
23281;BME280;11809;56.390;-3.266;2023-09-19T08:27:46;98661.06;;;15.65;68.57
23281;BME280;11809;56.390;-3.266;2023-09-19T08:30:20;98658.81;;;15.70;68.41
23281;BME280;11809;56.390;-3.266;2023-09-19T08:32:56;98664.84;;;15.72;68.54
23281;BME280;11809;56.390;-3.266;2023-09-19T08:37:10;98640.41;;;15.78;67.62
23281;BME280;11809;56.390;-3.266;2023-09-19T08:39:37;98628.84;;;15.80;67.60
23281;BME280;11809;56.390;-3.266;2023-09-19T08:42:04;98636.63;;;15.81;67.63
23281;BME280;11809;56.390;-3.266;2023-09-19T08:44:36;98625.91;;;15.83;67.48
23281;BME280;11809;56.390;-3.266;2023-09-19T08:47:26;98623.38;;;15.81;67.74
23281;BME280;11809;56.390;-3.266;2023-09-19T08:50:16;98616.44;;;15.80;67.65
23281;BME280;11809;56.390;-3.266;2023-09-19T08:52:46;98615.59;;;15.80;67.68
23281;BME280;11809;56.390;-3.266;2023-09-19T08:55:18;98612.00;;;15.81;67.44
23281;BME280;11809;56.390;-3.266;2023-09-19T08:57:51;98605.56;;;15.83;67.33
23281;BME280;11809;56.390;-3.266;2023-09-19T09:00:19;98612.50;;;15.84;67.23
23281;BME280;11809;56.390;-3.266;2023-09-19T09:02:49;98613.63;;;15.82;67.53
23281;BME280;11809;56.390;-3.266;2023-09-19T09:05:17;98617.81;;;15.84;67.75
23281;BME280;11809;56.390;-3.266;2023-09-19T09:07:50;98618.50;;;15.86;67.77
23281;BME280;11809;56.390;-3.266;2023-09-19T09:10:24;98612.22;;;15.87;67.87
23281;BME280;11809;56.390;-3.266;2023-09-19T09:12:53;98622.81;;;15.87;67.62
23281;BME280;11809;56.390;-3.266;2023-09-19T09:15:23;98618.38;;;15.88;67.57
23281;BME280;11809;56.390;-3.266;2023-09-19T09:17:51;98623.38;;;15.91;67.65
23281;BME280;11809;56.390;-3.266;2023-09-19T09:20:21;98623.38;;;15.91;67.69
23281;BME280;11809;56.390;-3.266;2023-09-19T09:22:56;98613.47;;;15.93;67.62
23281;BME280;11809;56.390;-3.266;2023-09-19T09:25:53;98603.84;;;15.92;67.48
23281;BME280;11809;56.390;-3.266;2023-09-19T09:28:25;98599.66;;;15.89;67.63
23281;BME280;11809;56.390;-3.266;2023-09-19T09:30:57;98591.59;;;15.91;67.42
23281;BME280;11809;56.390;-3.266;2023-09-19T09:33:35;98593.97;;;15.94;67.71
23281;BME280;11809;56.390;-3.266;2023-09-19T09:36:03;98597.28;;;15.96;67.51
23281;BME280;11809;56.390;-3.266;2023-09-19T09:38:45;98586.00;;;15.94;67.50
23281;BME280;11809;56.390;-3.266;2023-09-19T09:41:13;98589.47;;;15.94;67.36
23281;BME280;11809;56.390;-3.266;2023-09-19T09:43:54;98600.06;;;15.94;67.38
23281;BME280;11809;56.390;-3.266;2023-09-19T09:46:21;98598.25;;;15.95;67.56
23281;BME280;11809;56.390;-3.266;2023-09-19T09:51:51;98607.72;;;15.97;67.91
23281;BME280;11809;56.390;-3.266;2023-09-19T09:54:28;98610.50;;;16.05;67.95
23281;BME280;11809;56.390;-3.266;2023-09-19T09:57:10;98608.56;;;16.07;67.85
23281;BME280;11809;56.390;-3.266;2023-09-19T09:59:49;98592.66;;;16.07;67.41
23281;BME280;11809;56.390;-3.266;2023-09-19T10:02:18;98595.97;;;16.09;67.52
23281;BME280;11809;56.390;-3.266;2023-09-19T10:04:53;98594.69;;;16.13;67.28
23281;BME280;11809;56.390;-3.266;2023-09-19T10:07:40;98599.88;;;16.15;67.15
23281;BME280;11809;56.390;-3.266;2023-09-19T10:12:29;98605.69;;;16.18;67.17
23281;BME280;11809;56.390;-3.266;2023-09-19T10:14:57;98595.47;;;16.23;66.94
23281;BME280;11809;56.390;-3.266;2023-09-19T10:17:29;98591.97;;;16.32;67.01
23281;BME280;11809;56.390;-3.266;2023-09-19T10:19:59;98598.31;;;16.39;66.70
23281;BME280;11809;56.390;-3.266;2023-09-19T10:22:34;98603.06;;;16.46;66.81
23281;BME280;11809;56.390;-3.266;2023-09-19T10:25:04;98596.44;;;16.59;66.80
23281;BME280;11809;56.390;-3.266;2023-09-19T10:27:35;98593.34;;;16.64;66.53
23281;BME280;11809;56.390;-3.266;2023-09-19T10:30:08;98585.69;;;16.61;66.68
23281;BME280;11809;56.390;-3.266;2023-09-19T10:32:39;98594.63;;;16.60;66.40
23281;BME280;11809;56.390;-3.266;2023-09-19T10:35:08;98590.47;;;16.57;66.36
23281;BME280;11809;56.390;-3.266;2023-09-19T10:37:40;98594.25;;;16.55;66.32
23281;BME280;11809;56.390;-3.266;2023-09-19T10:40:10;98593.00;;;16.49;66.21
23281;BME280;11809;56.390;-3.266;2023-09-19T10:42:40;98593.88;;;16.40;65.30
23281;BME280;11809;56.390;-3.266;2023-09-19T10:45:09;98596.97;;;16.35;65.17
23281;BME280;11809;56.390;-3.266;2023-09-19T10:47:40;98588.72;;;16.38;65.82
23281;BME280;11809;56.390;-3.266;2023-09-19T10:50:08;98600.97;;;16.39;66.07
23281;BME280;11809;56.390;-3.266;2023-09-19T10:52:40;98595.84;;;16.38;66.18
23281;BME280;11809;56.390;-3.266;2023-09-19T10:55:08;98596.69;;;16.38;66.12
23281;BME280;11809;56.390;-3.266;2023-09-19T10:57:44;98598.31;;;16.39;66.21
23281;BME280;11809;56.390;-3.266;2023-09-19T11:00:14;98593.03;;;16.39;66.18
23281;BME280;11809;56.390;-3.266;2023-09-19T11:05:42;98589.00;;;16.35;66.45
23281;BME280;11809;56.390;-3.266;2023-09-19T11:08:10;98587.22;;;16.36;66.54
23281;BME280;11809;56.390;-3.266;2023-09-19T11:10:49;98594.31;;;16.35;66.50
23281;BME280;11809;56.390;-3.266;2023-09-19T11:13:27;98595.00;;;16.37;66.45
23281;BME280;11809;56.390;-3.266;2023-09-19T11:27:09;98609.56;;;16.24;64.81
23281;BME280;11809;56.390;-3.266;2023-09-19T11:29:36;98610.19;;;16.18;65.10
23281;BME280;11809;56.390;-3.266;2023-09-19T11:32:04;98608.34;;;16.18;65.79
23281;BME280;11809;56.390;-3.266;2023-09-19T11:40:06;98619.75;;;16.28;66.42
23281;BME280;11809;56.390;-3.266;2023-09-19T11:42:43;98606.78;;;16.25;66.33
23281;BME280;11809;56.390;-3.266;2023-09-19T11:48:15;98609.53;;;16.33;66.37
23281;BME280;11809;56.390;-3.266;2023-09-19T11:50:43;98597.94;;;16.34;66.54
23281;BME280;11809;56.390;-3.266;2023-09-19T11:53:13;98607.88;;;16.32;66.69
23281;BME280;11809;56.390;-3.266;2023-09-19T11:55:41;98604.75;;;16.37;66.67
23281;BME280;11809;56.390;-3.266;2023-09-19T11:58:10;98603.94;;;16.36;66.58
23281;BME280;11809;56.390;-3.266;2023-09-19T12:00:42;98604.75;;;16.37;66.64
23281;BME280;11809;56.390;-3.266;2023-09-19T12:03:11;98597.81;;;16.36;66.53
23281;BME280;11809;56.390;-3.266;2023-09-19T12:05:41;98593.34;;;16.36;66.64
23281;BME280;11809;56.390;-3.266;2023-09-19T12:08:08;98606.59;;;16.36;66.53
23281;BME280;11809;56.390;-3.266;2023-09-19T12:10:48;98609.25;;;16.36;66.53
23281;BME280;11809;56.390;-3.266;2023-09-19T12:13:19;98616.22;;;16.37;66.56
23281;BME280;11809;56.390;-3.266;2023-09-19T12:15:47;98616.06;;;16.39;66.63
23281;BME280;11809;56.390;-3.266;2023-09-19T12:20:55;98622.19;;;16.39;66.58
23281;BME280;11809;56.390;-3.266;2023-09-19T12:23:22;98614.22;;;16.39;66.51
23281;BME280;11809;56.390;-3.266;2023-09-19T12:25:49;98608.13;;;16.39;66.53
23281;BME280;11809;56.390;-3.266;2023-09-19T12:28:20;98611.47;;;16.41;66.53
23281;BME280;11809;56.390;-3.266;2023-09-19T12:30:50;98611.47;;;16.41;66.49
23281;BME280;11809;56.390;-3.266;2023-09-19T12:33:19;98613.09;;;16.42;66.29
23281;BME280;11809;56.390;-3.266;2023-09-19T12:35:47;98610.44;;;16.42;66.51
23281;BME280;11809;56.390;-3.266;2023-09-19T12:38:25;98618.41;;;16.42;66.47
23281;BME280;11809;56.390;-3.266;2023-09-19T12:40:58;98613.94;;;16.43;66.42
23281;BME280;11809;56.390;-3.266;2023-09-19T12:43:30;98627.91;;;16.45;66.57
23281;BME280;11809;56.390;-3.266;2023-09-19T12:46:00;98617.16;;;16.46;66.43
23281;BME280;11809;56.390;-3.266;2023-09-19T12:48:27;98612.97;;;16.44;66.42
23281;BME280;11809;56.390;-3.266;2023-09-19T12:51:02;98619.13;;;16.44;66.37
23281;BME280;11809;56.390;-3.266;2023-09-19T12:56:11;98610.72;;;16.49;66.24
23281;BME280;11809;56.390;-3.266;2023-09-19T12:58:57;98608.91;;;16.49;66.28
23281;BME280;11809;56.390;-3.266;2023-09-19T13:01:31;98615.03;;;16.50;66.37
23281;BME280;11809;56.390;-3.266;2023-09-19T13:04:12;98614.75;;;16.53;66.44
23281;BME280;11809;56.390;-3.266;2023-09-19T13:06:42;98607.75;;;16.52;66.22
23281;BME280;11809;56.390;-3.266;2023-09-19T13:09:12;98613.06;;;16.52;66.32
23281;BME280;11809;56.390;-3.266;2023-09-19T13:11:41;98615.59;;;16.53;66.27
23281;BME280;11809;56.390;-3.266;2023-09-19T13:17:02;98630.38;;;16.56;66.22
23281;BME280;11809;56.390;-3.266;2023-09-19T13:19:43;98627.59;;;16.57;66.32
23281;BME280;11809;56.390;-3.266;2023-09-19T13:22:39;98624.25;;;16.55;66.44
23281;BME280;11809;56.390;-3.266;2023-09-19T13:25:12;98624.78;;;16.59;66.22
23281;BME280;11809;56.390;-3.266;2023-09-19T13:30:13;98647.97;;;16.57;66.26
23281;BME280;11809;56.390;-3.266;2023-09-19T13:32:41;98644.34;;;16.48;65.64
23281;BME280;11809;56.390;-3.266;2023-09-19T13:35:10;98633.22;;;16.45;65.97
23281;BME280;11809;56.390;-3.266;2023-09-19T13:37:40;98625.66;;;16.50;66.31
23281;BME280;11809;56.390;-3.266;2023-09-19T13:40:15;98629.28;;;16.49;66.25
23281;BME280;11809;56.390;-3.266;2023-09-19T13:42:42;98624.66;;;16.51;66.33
23281;BME280;11809;56.390;-3.266;2023-09-19T13:45:10;98616.69;;;16.51;66.38
23281;BME280;11809;56.390;-3.266;2023-09-19T13:47:39;98613.91;;;16.52;66.38
23281;BME280;11809;56.390;-3.266;2023-09-19T13:50:08;98604.16;;;16.53;66.46
23281;BME280;11809;56.390;-3.266;2023-09-19T13:52:36;98622.72;;;16.53;66.22
23281;BME280;11809;56.390;-3.266;2023-09-19T13:55:03;98616.44;;;16.54;66.47
23281;BME280;11809;56.390;-3.266;2023-09-19T13:57:31;98618.97;;;16.55;66.44
23281;BME280;11809;56.390;-3.266;2023-09-19T14:00:00;98612.53;;;16.58;66.45
23281;BME280;11809;56.390;-3.266;2023-09-19T14:02:27;98613.31;;;16.58;66.57